Time;durP1;ratioP1;P1;durP2;ratioP2;P2;SDS_P1;SDS_P2;PMS_P1;PMS_P2;Temp;Humidity;BMP_temperature;BMP_pressure;BME280_temperature;BME280_humidity;BME280_pressure;Samples;Min_cycle;Max_cycle;Signal;HPM_P1;HPM_P2
2021/07/03 00:00:20;;;;;;;14.30;9.32;;;14.30;99.90;;;;;;5074303;28;20123;-60
2021/07/03 00:02:46;;;;;;;14.82;9.27;;;14.20;99.90;;;;;;5073551;28;20068;-60
2021/07/03 00:05:12;;;;;;;10.70;8.75;;;14.20;99.90;;;;;;5074357;28;20041;-61
2021/07/03 00:07:37;;;;;;;12.43;9.27;;;14.30;99.90;;;;;;5074364;28;20554;-60
2021/07/03 00:10:04;;;;;;;19.00;10.00;;;14.20;99.90;;;;;;5074490;28;20163;-60
2021/07/03 00:12:30;;;;;;;13.88;8.82;;;14.10;99.90;;;;;;5074319;28;20772;-60
2021/07/03 00:14:56;;;;;;;14.70;9.05;;;14.10;99.90;;;;;;5074195;28;20051;-60
2021/07/03 00:17:22;;;;;;;9.52;7.30;;;14.10;99.90;;;;;;5074293;28;20051;-60
2021/07/03 00:19:48;;;;;;;5.45;4.95;;;14.20;99.90;;;;;;5072836;28;20405;-60
2021/07/03 00:22:14;;;;;;;3.40;3.13;;;14.00;99.90;;;;;;5073944;28;20037;-60
2021/07/03 00:24:40;;;;;;;8.35;3.40;;;14.10;99.90;;;;;;5073967;28;20051;-60
2021/07/03 00:27:06;;;;;;;4.10;3.78;;;14.20;99.90;;;;;;5073816;28;20045;-60
2021/07/03 00:29:31;;;;;;;4.47;4.07;;;14.10;99.90;;;;;;5073690;28;20044;-60
2021/07/03 00:31:57;;;;;;;4.43;4.03;;;14.10;99.90;;;;;;5073856;28;20052;-61
2021/07/03 00:34:23;;;;;;;5.72;4.95;;;14.10;99.90;;;;;;5073724;28;20048;-61
2021/07/03 00:36:49;;;;;;;5.57;4.72;;;14.00;99.90;;;;;;5073784;28;20055;-61
2021/07/03 00:39:15;;;;;;;8.93;4.90;;;14.10;99.90;;;;;;5073486;28;20056;-61
2021/07/03 00:41:40;;;;;;;4.40;3.95;;;14.10;99.90;;;;;;5073648;28;20085;-60
2021/07/03 00:44:06;;;;;;;4.13;3.83;;;14.00;99.90;;;;;;5073374;28;20086;-61
2021/07/03 00:46:32;;;;;;;5.63;4.03;;;13.80;99.90;;;;;;5073633;28;20101;-60
2021/07/03 00:48:57;;;;;;;5.35;3.97;;;13.80;99.90;;;;;;5073529;28;20048;-60
2021/07/03 00:51:23;;;;;;;5.00;4.53;;;13.70;99.90;;;;;;5073500;28;20052;-61
2021/07/03 00:53:50;;;;;;;4.40;4.07;;;13.80;99.90;;;;;;5073205;28;20561;-60
2021/07/03 00:56:15;;;;;;;3.88;3.42;;;13.60;99.90;;;;;;5073494;28;20151;-61
2021/07/03 00:58:41;;;;;;;4.95;3.33;;;13.60;99.90;;;;;;5073356;28;20146;-61
2021/07/03 01:01:07;;;;;;;6.78;3.42;;;13.60;99.90;;;;;;5073237;28;20115;-60
2021/07/03 01:03:32;;;;;;;4.10;3.70;;;13.60;99.90;;;;;;5073024;28;20446;-60
2021/07/03 01:05:58;;;;;;;4.50;3.88;;;13.70;99.90;;;;;;5072985;28;20097;-60
2021/07/03 01:08:24;;;;;;;4.68;4.28;;;13.60;99.90;;;;;;5073032;28;20133;-59
2021/07/03 01:10:49;;;;;;;5.05;3.55;;;13.60;99.90;;;;;;5072965;28;20071;-59
2021/07/03 01:13:15;;;;;;;4.18;3.53;;;13.50;99.90;;;;;;5072097;28;20053;-60
2021/07/03 01:15:41;;;;;;;3.80;3.15;;;13.50;99.90;;;;;;5072447;28;20060;-60
2021/07/03 01:18:07;;;;;;;3.90;3.47;;;13.50;99.90;;;;;;5072990;28;20049;-60
2021/07/03 01:20:33;;;;;;;3.95;3.38;;;13.40;99.90;;;;;;5072848;28;20532;-60
2021/07/03 01:22:59;;;;;;;3.45;3.15;;;13.40;99.90;;;;;;5072785;28;20051;-60
2021/07/03 01:25:25;;;;;;;3.08;2.88;;;13.40;99.90;;;;;;5072675;28;20466;-60
2021/07/03 01:28:05;;;;;;;3.83;2.88;;;13.40;99.90;;;;;;5072601;28;20075;-59
2021/07/03 01:30:31;;;;;;;3.33;3.03;;;13.40;99.90;;;;;;5072728;28;20048;-61
2021/07/03 01:32:58;;;;;;;5.35;3.50;;;13.50;99.90;;;;;;5072640;28;20475;-59
2021/07/03 01:35:38;;;;;;;4.50;4.00;;;13.40;99.90;;;;;;5072655;28;20458;-59
2021/07/03 01:38:03;;;;;;;;;;;13.30;99.90;;;;;;5072804;28;20055;-59
2021/07/03 01:40:29;;;;;;;8.15;3.70;;;13.30;99.90;;;;;;5072402;28;20006;-59
2021/07/03 01:42:55;;;;;;;4.22;3.78;;;13.30;99.90;;;;;;5072611;28;20140;-59
2021/07/03 01:45:21;;;;;;;4.80;3.67;;;13.20;99.90;;;;;;5072522;28;20068;-59
2021/07/03 01:47:50;;;;;;;4.63;3.05;;;13.40;99.90;;;;;;5072424;28;20044;-59
2021/07/03 01:50:16;;;;;;;3.72;3.08;;;13.30;99.90;;;;;;5072378;28;20398;-59
2021/07/03 01:52:42;;;;;;;4.88;3.83;;;13.30;99.90;;;;;;5072217;28;20540;-59
2021/07/03 01:55:09;;;;;;;3.78;3.30;;;13.30;99.90;;;;;;5072418;28;20067;-59
2021/07/03 01:57:36;;;;;;;4.38;3.28;;;13.30;99.90;;;;;;5071969;28;20060;-60
2021/07/03 02:00:08;;;;;;;3.00;2.80;;;13.30;99.90;;;;;;5072069;28;20052;-59
2021/07/03 02:02:34;;;;;;;4.25;3.63;;;13.30;99.90;;;;;;5072231;28;20048;-59
2021/07/03 02:05:00;;;;;;;6.00;3.83;;;13.20;99.90;;;;;;5072070;28;20063;-59
2021/07/03 02:07:25;;;;;;;3.47;3.17;;;13.10;99.90;;;;;;5072025;28;20083;-59
2021/07/03 02:09:51;;;;;;;3.33;3.03;;;13.10;99.90;;;;;;5072204;28;20050;-59
2021/07/03 02:12:17;;;;;;;3.92;2.95;;;13.10;99.90;;;;;;5070914;28;20097;-59
2021/07/03 02:14:42;;;;;;;4.65;3.83;;;13.10;99.90;;;;;;5071920;28;20521;-59
2021/07/03 02:17:09;;;;;;;6.10;4.10;;;13.10;99.90;;;;;;5072043;28;20048;-59
2021/07/03 02:19:34;;;;;;;5.93;3.97;;;13.10;99.90;;;;;;5071610;28;20045;-59
2021/07/03 02:22:00;;;;;;;5.10;3.97;;;13.10;99.90;;;;;;5072189;28;20105;-59
2021/07/03 02:24:26;;;;;;;5.70;4.63;;;13.10;99.90;;;;;;5071513;28;20097;-59
2021/07/03 02:26:51;;;;;;;5.50;4.95;;;13.00;99.90;;;;;;5071968;28;20048;-59
2021/07/03 02:29:17;;;;;;;6.35;4.15;;;13.00;99.90;;;;;;5071692;28;20474;-59
2021/07/03 02:31:43;;;;;;;4.95;3.75;;;13.00;99.90;;;;;;5071884;28;20082;-59
2021/07/03 02:34:09;;;;;;;6.38;3.70;;;12.80;99.90;;;;;;5071853;28;20044;-59
2021/07/03 02:36:35;;;;;;;4.13;3.67;;;12.80;99.90;;;;;;5071680;28;20040;-59
2021/07/03 02:39:00;;;;;;;4.10;3.70;;;12.80;99.90;;;;;;5071875;28;20049;-59
2021/07/03 02:41:26;;;;;;;7.82;4.45;;;12.90;99.90;;;;;;5071883;28;20037;-59
2021/07/03 02:43:52;;;;;;;6.03;4.70;;;13.00;99.90;;;;;;5071707;28;20037;-59
2021/07/03 02:46:17;;;;;;;6.85;5.00;;;13.00;99.90;;;;;;5071520;28;20079;-59
2021/07/03 02:48:43;;;;;;;6.10;4.80;;;12.90;99.90;;;;;;5071689;28;20044;-59
2021/07/03 02:51:09;;;;;;;8.25;5.00;;;12.80;99.90;;;;;;5071590;28;20053;-59
2021/07/03 02:53:35;;;;;;;8.68;5.15;;;12.80;99.90;;;;;;5071538;28;20482;-59
2021/07/03 02:56:01;;;;;;;6.72;4.50;;;12.80;99.90;;;;;;5071586;28;20036;-59
2021/07/03 02:58:27;;;;;;;7.00;5.57;;;12.90;99.90;;;;;;5071428;28;20037;-59
2021/07/03 03:00:53;;;;;;;9.02;6.63;;;12.80;99.90;;;;;;5071513;28;20123;-60
2021/07/03 03:03:19;;;;;;;6.03;5.15;;;12.80;99.90;;;;;;5071615;28;20123;-60
2021/07/03 03:05:45;;;;;;;6.38;4.55;;;12.70;99.90;;;;;;5071720;28;20052;-59
2021/07/03 03:08:11;;;;;;;7.20;5.07;;;12.70;99.90;;;;;;5071539;28;20474;-59
2021/07/03 03:10:36;;;;;;;8.23;5.78;;;12.70;99.90;;;;;;5071688;28;20045;-59
2021/07/03 03:13:02;;;;;;;8.10;4.93;;;12.70;99.90;;;;;;5071638;28;20048;-59
2021/07/03 03:15:28;;;;;;;7.57;5.03;;;12.70;99.90;;;;;;5071280;28;20052;-59
2021/07/03 03:17:54;;;;;;;7.15;4.20;;;12.60;99.90;;;;;;5071380;28;20389;-59
2021/07/03 03:20:20;;;;;;;8.43;4.90;;;12.60;99.90;;;;;;5071396;28;20041;-57
2021/07/03 03:22:46;;;;;;;6.63;4.57;;;12.60;99.90;;;;;;5071470;28;20071;-58
2021/07/03 03:25:11;;;;;;;7.00;4.40;;;12.60;99.90;;;;;;5071255;28;20141;-58
2021/07/03 03:27:39;;;;;;;8.40;5.38;;;12.60;99.90;;;;;;5071234;28;20044;-58
2021/07/03 03:30:06;;;;;;;7.00;4.90;;;12.60;99.90;;;;;;5071239;28;20128;-58
2021/07/03 03:32:31;;;;;;;5.28;4.70;;;12.60;99.90;;;;;;5071107;28;20059;-58
2021/07/03 03:34:58;;;;;;;8.20;3.83;;;12.60;99.90;;;;;;5071202;28;20170;-58
2021/07/03 03:37:24;;;;;;;5.10;3.78;;;12.60;99.90;;;;;;5072679;28;20500;-58
2021/07/03 03:39:49;;;;;;;3.90;3.47;;;12.60;99.90;;;;;;5074555;28;20062;-58
2021/07/03 03:42:15;;;;;;;4.13;3.83;;;12.60;99.90;;;;;;5074916;28;20098;-58
2021/07/03 03:44:41;;;;;;;3.90;3.53;;;12.50;99.90;;;;;;5074741;28;20135;-58
2021/07/03 03:47:06;;;;;;;3.35;3.08;;;12.60;99.90;;;;;;5074502;28;20037;-59
2021/07/03 03:49:32;;;;;;;6.47;4.68;;;12.60;99.90;;;;;;5074630;28;20075;-58
2021/07/03 03:51:58;;;;;;;6.22;4.65;;;12.60;99.90;;;;;;5074721;28;20076;-58
2021/07/03 03:54:24;;;;;;;9.45;5.53;;;12.70;99.90;;;;;;5074945;28;20063;-59
2021/07/03 03:57:21;;;;;;;5.65;5.15;;;12.60;99.90;;;;;;5074700;28;20048;-59
2021/07/03 03:59:35;;;;;;;5.13;4.72;;;12.60;99.90;;;;;;5074392;28;20066;-59
2021/07/03 04:02:01;;;;;;;5.57;5.05;;;12.50;99.90;;;;;;5074192;28;20106;-59
2021/07/03 04:04:27;;;;;;;4.78;4.25;;;12.50;99.90;;;;;;5074402;28;20110;-59
2021/07/03 04:06:53;;;;;;;4.43;3.60;;;12.50;99.90;;;;;;5074038;28;20048;-58
2021/07/03 04:09:18;;;;;;;8.75;5.00;;;12.60;99.90;;;;;;5074197;28;20036;-59
2021/07/03 04:11:44;;;;;;;5.53;4.93;;;12.50;99.90;;;;;;5074146;28;20052;-58
2021/07/03 04:14:10;;;;;;;5.93;4.75;;;12.60;99.90;;;;;;5073975;28;20063;-59
2021/07/03 04:16:35;;;;;;;5.13;4.63;;;12.60;99.90;;;;;;5074050;28;20106;-59
2021/07/03 04:19:01;;;;;;;8.20;5.13;;;12.70;99.90;;;;;;5074186;28;20098;-59
2021/07/03 04:21:27;;;;;;;6.03;4.22;;;12.80;99.90;;;;;;5073762;28;20494;-58
2021/07/03 04:23:52;;;;;;;5.53;4.78;;;12.90;99.90;;;;;;5074066;28;20044;-59
2021/07/03 04:26:18;;;;;;;5.07;4.53;;;13.00;99.90;;;;;;5073940;28;20051;-59
2021/07/03 04:28:44;;;;;;;4.95;4.45;;;13.10;99.90;;;;;;5073927;28;20048;-59
2021/07/03 04:31:09;;;;;;;5.68;4.38;;;13.20;99.90;;;;;;5074042;28;20418;-59
2021/07/03 04:33:35;;;;;;;6.88;4.32;;;13.20;99.90;;;;;;5074064;28;20155;-59
2021/07/03 04:36:01;;;;;;;7.18;4.65;;;13.30;99.90;;;;;;5073636;28;20043;-59
2021/07/03 04:38:27;;;;;;;6.82;5.03;;;13.30;99.90;;;;;;5073718;28;20546;-59
2021/07/03 04:40:53;;;;;;;9.15;4.97;;;13.50;99.90;;;;;;5073628;28;20047;-59
2021/07/03 04:43:18;;;;;;;7.20;5.28;;;13.40;99.90;;;;;;5073662;28;20135;-59
2021/07/03 04:45:44;;;;;;;7.30;5.60;;;13.50;99.90;;;;;;5073519;28;20139;-59
2021/07/03 04:48:10;;;;;;;9.68;4.78;;;13.50;99.90;;;;;;5073097;28;20155;-59
2021/07/03 04:50:35;;;;;;;6.38;5.25;;;13.50;99.90;;;;;;5073536;28;20102;-60
2021/07/03 04:53:01;;;;;;;6.55;5.10;;;13.60;99.90;;;;;;5073486;28;20041;-60
2021/07/03 04:55:27;;;;;;;9.35;5.10;;;13.80;99.90;;;;;;5073310;28;20074;-60
2021/07/03 04:57:53;;;;;;;7.75;6.78;;;13.80;99.90;;;;;;5073148;28;20040;-60
2021/07/03 05:00:19;;;;;;;10.45;7.88;;;14.00;99.90;;;;;;5073285;28;20036;-59
2021/07/03 05:02:44;;;;;;;12.48;9.70;;;14.10;99.90;;;;;;5073276;28;20044;-60
2021/07/03 05:05:10;;;;;;;13.73;10.02;;;14.20;99.90;;;;;;5073311;28;20040;-59
2021/07/03 05:07:37;;;;;;;11.68;10.45;;;14.40;99.90;;;;;;5073121;28;20051;-59
2021/07/03 05:10:04;;;;;;;13.75;10.77;;;14.50;99.90;;;;;;5073090;28;20072;-60
2021/07/03 05:12:29;;;;;;;13.75;10.13;;;14.60;99.90;;;;;;5073028;28;20394;-59
2021/07/03 05:14:55;;;;;;;14.65;12.68;;;14.80;99.90;;;;;;5072853;28;20053;-59
2021/07/03 05:17:21;;;;;;;17.75;14.07;;;14.80;99.90;;;;;;5073243;28;20041;-59
2021/07/03 05:19:47;;;;;;;21.08;15.15;;;15.00;99.90;;;;;;5073076;28;20068;-58
2021/07/03 05:22:13;;;;;;;18.30;14.25;;;15.10;99.90;;;;;;5072864;28;20040;-59
2021/07/03 05:24:38;;;;;;;18.77;13.57;;;15.30;99.90;;;;;;5072705;28;20120;-59
2021/07/03 05:27:04;;;;;;;17.17;13.45;;;15.30;99.90;;;;;;5072637;28;20033;-59
2021/07/03 05:29:30;;;;;;;19.90;14.80;;;15.50;99.90;;;;;;5072610;28;20555;-59
2021/07/03 05:31:55;;;;;;;16.77;14.77;;;15.60;99.90;;;;;;5072738;28;20531;-60
2021/07/03 05:34:21;;;;;;;19.35;14.93;;;15.80;99.90;;;;;;5072686;28;20044;-60
2021/07/03 05:36:49;;;;;;;16.17;13.75;;;15.90;99.90;;;;;;5059737;28;20057;-60
2021/07/03 05:39:14;;;;;;;15.15;13.65;;;16.00;99.90;;;;;;5052430;28;20112;-60
2021/07/03 05:41:40;;;;;;;21.45;13.45;;;16.10;99.90;;;;;;5052368;28;20116;-61
2021/07/03 05:44:06;;;;;;;25.00;14.13;;;16.30;99.90;;;;;;5052149;28;20033;-61
2021/07/03 05:46:32;;;;;;;18.25;12.90;;;16.30;99.90;;;;;;5052338;28;20033;-61
2021/07/03 05:48:58;;;;;;;16.95;10.20;;;16.30;99.90;;;;;;5052219;28;20410;-61
2021/07/03 05:51:26;;;;;;;21.10;11.13;;;16.40;99.90;;;;;;5052014;28;20486;-59
2021/07/03 05:53:52;;;;;;;20.92;11.18;;;16.50;99.90;;;;;;5052282;28;20041;-60
2021/07/03 05:56:19;;;;;;;18.42;10.35;;;16.50;99.90;;;;;;5052279;28;20041;-60
2021/07/03 05:58:44;;;;;;;15.93;9.45;;;16.60;99.90;;;;;;5052004;28;20041;-60
2021/07/03 06:01:10;;;;;;;15.18;9.73;;;16.60;99.90;;;;;;5051552;28;20051;-58
2021/07/03 06:03:36;;;;;;;14.73;8.65;;;16.90;99.90;;;;;;5052303;28;20396;-59
2021/07/03 06:06:02;;;;;;;14.07;8.60;;;17.00;99.90;;;;;;5052107;28;20033;-59
2021/07/03 06:08:28;;;;;;;12.70;7.70;;;17.20;99.90;;;;;;5052388;28;20056;-59
2021/07/03 06:10:53;;;;;;;12.15;6.50;;;17.30;99.90;;;;;;5052335;28;20149;-60
2021/07/03 06:13:19;;;;;;;12.13;7.22;;;17.40;99.90;;;;;;5051990;28;20471;-60
2021/07/03 06:15:45;;;;;;;11.65;6.35;;;17.40;99.90;;;;;;5051751;28;20479;-59
2021/07/03 06:18:10;;;;;;;11.32;6.18;;;17.60;99.90;;;;;;5052005;28;20483;-58
2021/07/03 06:20:36;;;;;;;9.20;5.00;;;17.50;99.90;;;;;;5054114;28;20037;-61
2021/07/03 06:23:02;;;;;;;9.07;5.25;;;17.60;99.90;;;;;;5058242;28;20041;-60
2021/07/03 06:25:28;;;;;;;9.73;4.95;;;17.80;99.90;;;;;;5057024;28;20463;-59
2021/07/03 06:27:53;;;;;;;12.07;5.45;;;17.90;99.90;;;;;;5058534;28;20119;-59
2021/07/03 06:30:19;;;;;;;8.98;4.28;;;18.00;99.90;;;;;;5065733;28;20037;-58
2021/07/03 06:32:45;;;;;;;8.98;5.45;;;18.20;99.90;;;;;;5061314;28;20565;-59
2021/07/03 06:35:11;;;;;;;7.70;5.07;;;18.20;99.90;;;;;;5062130;28;20048;-60
2021/07/03 06:37:37;;;;;;;12.15;4.15;;;18.30;99.90;;;;;;5059640;28;20571;-59
2021/07/03 06:40:03;;;;;;;7.88;4.13;;;18.50;99.90;;;;;;5061080;28;20127;-60
2021/07/03 06:42:29;;;;;;;10.18;5.72;;;18.70;99.90;;;;;;5052625;28;20037;-60
2021/07/03 06:44:55;;;;;;;9.18;5.18;;;18.90;99.90;;;;;;5056021;28;20044;-60
2021/07/03 06:47:20;;;;;;;8.20;5.60;;;19.00;99.90;;;;;;5066829;28;20489;-59
2021/07/03 06:49:46;;;;;;;9.65;4.22;;;19.00;99.90;;;;;;5065212;28;20041;-59
2021/07/03 06:52:12;;;;;;;6.50;4.60;;;19.30;99.90;;;;;;5065483;28;20044;-60
2021/07/03 06:54:40;;;;;;;10.00;4.32;;;19.70;99.90;;;;;;5062982;28;20106;-60
2021/07/03 06:57:08;;;;;;;6.38;4.72;;;19.70;99.90;;;;;;5060696;28;20041;-58
2021/07/03 06:59:33;;;;;;;7.33;4.57;;;19.90;99.90;;;;;;5058174;28;20037;-59
2021/07/03 07:01:59;;;;;;;5.50;4.45;;;20.10;99.90;;;;;;5060782;28;20352;-59
2021/07/03 07:04:26;;;;;;;8.77;4.10;;;20.50;99.90;;;;;;5058838;28;20106;-59
2021/07/03 07:06:53;;;;;;;8.80;4.57;;;20.50;99.90;;;;;;5062368;28;20051;-58
2021/07/03 07:09:19;;;;;;;9.05;4.65;;;20.50;99.90;;;;;;5060484;28;20037;-60
2021/07/03 07:11:45;;;;;;;8.75;4.97;;;20.60;99.90;;;;;;5063485;28;20387;-59
2021/07/03 07:14:12;;;;;;;8.73;4.88;;;20.70;99.90;;;;;;5066402;28;20090;-60
2021/07/03 07:16:38;;;;;;;11.57;5.40;;;21.00;99.90;;;;;;5055315;28;20057;-59
2021/07/03 07:19:04;;;;;;;12.80;4.80;;;21.20;99.90;;;;;;5054964;28;20037;-60
2021/07/03 07:21:31;;;;;;;9.05;5.75;;;21.40;99.90;;;;;;5053855;28;20045;-60
2021/07/03 07:23:57;;;;;;;10.60;5.15;;;21.50;99.90;;;;;;5054928;28;20384;-59
2021/07/03 07:26:23;;;;;;;8.93;4.65;;;21.70;99.90;;;;;;5055232;28;20048;-59
2021/07/03 07:28:50;;;;;;;6.53;4.57;;;22.10;99.90;;;;;;5055147;28;20441;-59
2021/07/03 07:31:16;;;;;;;5.97;3.50;;;22.20;99.90;;;;;;5055089;28;20048;-60
2021/07/03 07:33:42;;;;;;;8.38;4.03;;;22.60;99.90;;;;;;5054864;28;20102;-59
2021/07/03 07:36:08;;;;;;;9.23;3.92;;;22.50;99.90;;;;;;5054791;28;20445;-59
2021/07/03 07:38:34;;;;;;;9.82;5.13;;;22.40;99.90;;;;;;5054699;28;20041;-59
2021/07/03 07:41:00;;;;;;;7.30;4.03;;;22.30;99.90;;;;;;5054914;28;20395;-59
2021/07/03 07:43:26;;;;;;;11.10;5.30;;;22.00;99.90;;;;;;5054788;28;20041;-59
2021/07/03 07:45:55;;;;;;;9.18;4.82;;;21.70;99.90;;;;;;5057341;28;20418;-59
2021/07/03 07:48:21;;;;;;;12.70;4.82;;;21.60;99.90;;;;;;5064188;28;20493;-60
2021/07/03 07:50:47;;;;;;;5.97;4.00;;;21.90;99.90;;;;;;5062346;28;20035;-59
2021/07/03 07:53:13;;;;;;;9.13;5.22;;;21.90;99.90;;;;;;5073862;28;20135;-59
2021/07/03 07:55:38;;;;;;;6.60;4.13;;;21.50;99.90;;;;;;5068937;28;20041;-59
2021/07/03 07:58:04;;;;;;;7.45;4.30;;;21.40;99.90;;;;;;5060963;28;22327;-60
2021/07/03 08:00:30;;;;;;;9.50;4.57;;;21.30;99.90;;;;;;5064520;28;20394;-60
2021/07/03 08:02:56;;;;;;;7.18;4.00;;;21.30;99.90;;;;;;5064370;28;20040;-60
2021/07/03 08:05:22;;;;;;;9.52;4.95;;;21.30;99.90;;;;;;5066843;28;20110;-60
2021/07/03 08:07:47;;;;;;;11.27;5.68;;;21.20;99.90;;;;;;5064237;28;20955;-59
2021/07/03 08:10:14;;;;;;;12.90;5.50;;;21.10;99.90;;;;;;5063726;28;20041;-60
2021/07/03 08:12:41;;;;;;;11.50;5.75;;;21.00;99.90;;;;;;5065300;28;20059;-59
2021/07/03 08:15:08;;;;;;;6.85;5.35;;;21.20;99.90;;;;;;5062902;28;20079;-60
2021/07/03 08:17:34;;;;;;;12.63;6.72;;;21.40;99.90;;;;;;5074070;28;20102;-60
2021/07/03 08:20:00;;;;;;;7.25;5.53;;;21.30;99.90;;;;;;5073964;28;20540;-60
2021/07/03 08:22:25;;;;;;;11.93;6.97;;;21.40;99.90;;;;;;5073281;28;20036;-60
2021/07/03 08:24:51;;;;;;;12.75;7.43;;;21.40;99.90;;;;;;5074177;28;20044;-61
2021/07/03 08:27:17;;;;;;;12.10;7.57;;;21.40;99.90;;;;;;5074022;28;20111;-60
2021/07/03 08:29:43;;;;;;;16.50;8.52;;;21.40;99.90;;;;;;5073929;28;20499;-60
2021/07/03 08:32:08;;;;;;;11.63;8.80;;;21.40;99.90;;;;;;5073626;28;20090;-60
2021/07/03 08:34:34;;;;;;;11.23;8.55;;;21.40;99.90;;;;;;5073866;28;20128;-60
2021/07/03 08:37:00;;;;;;;13.40;9.13;;;21.60;99.90;;;;;;5073772;28;20048;-60
2021/07/03 08:39:26;;;;;;;11.02;8.45;;;21.60;99.90;;;;;;5073803;28;20044;-59
2021/07/03 08:41:52;;;;;;;14.70;8.60;;;21.60;99.90;;;;;;5073724;28;20040;-60
2021/07/03 08:44:18;;;;;;;14.88;8.05;;;21.60;99.90;;;;;;5073661;28;20043;-60
2021/07/03 08:46:45;;;;;;;13.23;7.63;;;21.80;99.90;;;;;;5073282;28;20575;-60
2021/07/03 08:49:13;;;;;;;13.57;8.02;;;22.00;99.90;;;;;;5059626;28;20569;-59
2021/07/03 08:51:42;;;;;;;12.82;7.72;;;22.00;99.90;;;;;;5069436;28;20037;-59
2021/07/03 08:54:09;;;;;;;10.68;7.30;;;22.20;99.90;;;;;;5068603;28;20044;-60
2021/07/03 08:56:35;;;;;;;12.05;7.43;;;22.50;99.90;;;;;;5058992;28;20041;-61
2021/07/03 08:59:01;;;;;;;11.30;7.35;;;22.70;99.90;;;;;;5055787;28;20051;-60
2021/07/03 09:01:26;;;;;;;9.32;7.03;;;23.10;99.90;;;;;;5055639;28;20041;-60
2021/07/03 09:03:55;;;;;;;10.20;6.40;;;23.50;99.90;;;;;;5056885;28;20037;-57
2021/07/03 09:06:33;;;;;;;8.38;6.80;;;23.50;99.90;;;;;;5060780;28;20048;-57
2021/07/03 09:08:59;;;;;;;11.25;7.30;;;23.90;99.90;;;;;;5063461;28;20052;-58
2021/07/03 09:11:25;;;;;;;14.43;6.88;;;24.10;99.90;;;;;;5060806;28;20508;-57
2021/07/03 09:14:26;;;;;;;8.18;6.40;;;24.10;99.90;;;;;;5060980;28;20076;-57
2021/07/03 09:16:57;;;;;;;13.10;7.68;;;24.50;99.90;;;;;;5062868;28;20051;-58
2021/07/03 09:19:30;;;;;;;11.10;7.72;;;24.20;99.90;;;;;;5073014;28;20100;-58
2021/07/03 09:21:57;;;;;;;10.77;7.47;;;24.70;99.90;;;;;;5072834;28;20475;-58
2021/07/03 09:24:30;;;;;;;11.07;7.47;;;24.80;99.90;;;;;;5072856;28;20072;-57
2021/07/03 09:27:03;;;;;;;7.75;6.13;;;24.70;99.90;;;;;;5072586;28;20064;-59
2021/07/03 09:29:29;;;;;;;9.25;6.18;;;24.70;99.90;;;;;;5070480;28;20044;-58
2021/07/03 09:32:06;;;;;;;9.98;5.65;;;24.60;99.90;;;;;;5051516;28;20560;-58
2021/07/03 09:34:32;;;;;;;8.60;6.35;;;24.50;99.90;;;;;;5068188;28;20040;-58
2021/07/03 09:37:05;;;;;;;8.35;5.50;;;24.60;99.90;;;;;;5068988;28;20040;-57
2021/07/03 09:39:31;;;;;;;8.82;5.53;;;24.80;99.90;;;;;;5052655;28;20064;-57
2021/07/03 09:41:59;;;;;;;7.72;5.05;;;24.60;99.90;;;;;;5052860;28;20033;-57
2021/07/03 09:44:25;;;;;;;11.25;5.45;;;24.70;99.90;;;;;;5052668;28;20136;-57
2021/07/03 09:46:53;;;;;;;7.18;4.53;;;24.80;99.90;;;;;;5052673;28;20096;-57
2021/07/03 09:49:21;;;;;;;6.70;5.10;;;25.10;99.90;;;;;;5052723;28;20127;-58
2021/07/03 09:51:55;;;;;;;7.57;5.03;;;25.00;99.90;;;;;;5065588;28;20041;-58
2021/07/03 09:54:23;;;;;;;5.72;4.70;;;25.10;99.90;;;;;;5072461;28;20040;-58
2021/07/03 09:56:59;;;;;;;8.25;4.55;;;25.30;99.90;;;;;;5065845;28;20045;-58
2021/07/03 09:59:36;;;;;;;8.27;4.68;;;25.40;99.90;;;;;;5051932;28;20049;-57
2021/07/03 10:02:05;;;;;;;8.02;4.45;;;25.60;99.90;;;;;;5051557;28;20045;-58
2021/07/03 10:04:30;;;;;;;7.28;4.75;;;25.70;99.40;;;;;;5051919;28;20041;-58
2021/07/03 10:07:17;;;;;;;7.60;4.63;;;25.60;99.80;;;;;;5052376;28;20391;-57
2021/07/03 10:09:55;;;;;;;7.75;4.93;;;25.70;99.60;;;;;;5010017;28;20050;-57
2021/07/03 10:12:27;;;;;;;7.00;4.35;;;25.90;98.60;;;;;;5010339;28;20422;-57
2021/07/03 10:14:54;;;;;;;8.60;5.07;;;26.20;99.90;;;;;;5010077;28;20065;-57
2021/07/03 10:17:27;;;;;;;8.43;5.03;;;25.90;97.30;;;;;;5010297;28;20042;-57
2021/07/03 10:19:54;;;;;;;9.52;5.80;;;26.10;99.90;;;;;;5010045;28;20439;-58
2021/07/03 10:22:22;;;;;;;10.00;5.30;;;26.30;99.40;;;;;;5010217;28;20037;-58
2021/07/03 10:24:53;;;;;;;10.27;6.22;;;26.50;99.30;;;;;;5010220;28;20041;-58
2021/07/03 10:27:30;;;;;;;10.63;5.80;;;26.30;98.50;;;;;;5010212;28;20454;-58
2021/07/03 10:29:58;;;;;;;7.40;4.80;;;26.40;99.10;;;;;;5010094;28;20136;-58
2021/07/03 10:32:23;;;;;;;7.35;4.50;;;26.40;98.80;;;;;;5010116;28;20049;-57
2021/07/03 10:34:50;;;;;;;7.75;4.28;;;26.50;97.80;;;;;;5010139;28;20561;-57
2021/07/03 10:37:27;;;;;;;11.57;4.63;;;26.70;96.90;;;;;;5010176;28;20052;-57
2021/07/03 10:39:54;;;;;;;5.50;4.03;;;26.80;98.70;;;;;;5009828;28;20057;-58
2021/07/03 10:42:30;;;;;;;6.30;4.00;;;28.00;98.20;;;;;;5014859;28;20034;-58
2021/07/03 10:45:10;;;;;;;11.43;4.32;;;29.30;96.00;;;;;;5039472;28;20041;-59
2021/07/03 10:47:35;;;;;;;8.63;4.07;;;30.50;93.60;;;;;;5071572;28;20052;-59
2021/07/03 10:50:17;;;;;;;7.13;3.95;;;31.60;93.00;;;;;;5075847;28;20075;-59
2021/07/03 10:52:43;;;;;;;7.38;4.40;;;32.20;91.90;;;;;;5075832;28;20041;-59
2021/07/03 10:55:09;;;;;;;5.25;3.85;;;32.60;89.00;;;;;;5075640;28;20032;-59
2021/07/03 10:57:43;;;;;;;5.88;4.90;;;32.10;88.50;;;;;;5075791;28;20079;-59
2021/07/03 11:00:11;;;;;;;7.50;4.20;;;32.20;86.60;;;;;;5075472;28;20083;-58
2021/07/03 11:02:36;;;;;;;;;;;32.20;86.60;;;;;;5075946;28;20123;-59
2021/07/03 11:05:11;;;;;;;9.48;3.45;;;33.00;85.40;;;;;;5075581;28;20019;-58
2021/07/03 11:07:36;;;;;;;7.35;4.32;;;33.20;83.50;;;;;;5075433;28;20489;-59
2021/07/03 11:10:37;;;;;;;8.50;4.00;;;33.10;83.30;;;;;;5075400;28;20051;-59
2021/07/03 11:13:04;;;;;;;7.13;3.97;;;33.10;81.60;;;;;;5013487;28;20539;-59
2021/07/03 11:15:30;;;;;;;9.05;4.15;;;33.20;81.70;;;;;;5013314;28;20439;-59
2021/07/03 11:17:57;;;;;;;6.35;3.60;;;33.50;81.70;;;;;;5013121;28;20049;-60
2021/07/03 11:20:35;;;;;;;7.50;4.68;;;33.70;81.90;;;;;;5013311;28;20202;-59
2021/07/03 11:23:03;;;;;;;4.45;3.50;;;33.50;78.10;;;;;;5013305;28;20042;-59
2021/07/03 11:25:35;;;;;;;4.20;3.05;;;33.80;78.80;;;;;;5013208;28;20562;-59
2021/07/03 11:28:11;;;;;;;5.47;3.33;;;34.30;79.80;;;;;;5013441;28;20480;-60
2021/07/03 11:30:39;;;;;;;6.43;3.42;;;34.50;78.30;;;;;;5007554;28;20038;-59
2021/07/03 11:33:05;;;;;;;;;;;34.70;75.50;;;;;;5004454;28;20053;-59
2021/07/03 11:35:32;;;;;;;5.65;2.95;;;34.40;76.20;;;;;;5006853;28;19924;-56
2021/07/03 11:37:59;;;;;;;7.57;3.30;;;34.60;77.40;;;;;;4997357;28;20042;-58
2021/07/03 11:40:28;;;;;;;5.32;2.95;;;34.90;77.10;;;;;;5007146;28;20054;-58
2021/07/03 11:43:00;;;;;;;5.55;2.83;;;35.10;77.30;;;;;;4996642;28;20519;-58
2021/07/03 11:45:33;;;;;;;5.22;2.00;;;35.00;73.00;;;;;;5006683;28;20042;-58
2021/07/03 11:48:09;;;;;;;4.22;3.03;;;34.90;66.30;;;;;;5002024;28;20053;-58
2021/07/03 11:50:37;;;;;;;3.90;2.65;;;34.80;70.40;;;;;;5058474;28;20032;-58
2021/07/03 11:53:06;;;;;;;3.35;2.55;;;35.00;71.90;;;;;;5059607;28;20041;-58
2021/07/03 11:55:35;;;;;;;6.72;3.25;;;35.00;71.20;;;;;;5062219;28;20039;-64
2021/07/03 11:58:01;;;;;;;4.53;2.72;;;34.80;71.20;;;;;;5063798;28;20047;-65
2021/07/03 12:00:33;;;;;;;4.68;2.67;;;35.00;70.80;;;;;;5067670;28;20044;-64
2021/07/03 12:02:59;;;;;;;5.20;2.50;;;34.50;70.50;;;;;;5072116;28;20509;-65
2021/07/03 12:05:32;;;;;;;3.03;2.50;;;34.40;70.60;;;;;;5067070;28;20047;-64
2021/07/03 12:08:16;;;;;;;4.50;2.70;;;34.60;69.50;;;;;;5070374;28;20040;-64
2021/07/03 12:10:51;;;;;;;2.88;2.35;;;34.50;69.80;;;;;;5056130;28;20037;-64
2021/07/03 12:13:26;;;;;;;4.60;3.08;;;34.40;70.10;;;;;;5054100;28;20044;-64
2021/07/03 12:15:54;;;;;;;4.05;2.88;;;34.20;71.20;;;;;;5054003;28;20076;-64
2021/07/03 12:18:37;;;;;;;5.55;2.95;;;34.30;70.40;;;;;;5054179;28;20048;-65
2021/07/03 12:21:04;;;;;;;5.30;3.28;;;34.10;70.60;;;;;;5053957;28;20056;-65
2021/07/03 12:23:30;;;;;;;3.83;2.92;;;33.80;71.30;;;;;;5054112;28;20041;-65
2021/07/03 12:25:55;;;;;;;3.85;2.58;;;33.80;71.40;;;;;;5054032;28;20167;-65
2021/07/03 12:28:21;;;;;;;3.63;2.88;;;33.20;69.50;;;;;;5053855;28;20053;-66
2021/07/03 12:30:47;;;;;;;4.68;2.83;;;33.20;71.70;;;;;;5053784;28;20037;-65
2021/07/03 12:33:15;;;;;;;3.20;2.72;;;33.30;72.10;;;;;;5054048;28;20064;-65
2021/07/03 12:35:43;;;;;;;4.22;2.50;;;33.00;71.50;;;;;;5053916;28;20041;-65
2021/07/03 12:38:11;;;;;;;5.82;3.08;;;33.00;70.40;;;;;;5053575;28;20036;-66
2021/07/03 12:40:43;;;;;;;5.72;2.80;;;32.80;71.00;;;;;;5053713;28;20048;-66
2021/07/03 12:43:10;;;;;;;3.67;2.83;;;32.40;69.90;;;;;;5053972;28;20063;-66